Grand View, Tennessee
Current Conditions -  °F | °C
As of 5:53 AM on Saturday 20 Dec 2014 (Local Time) from KCSV Reporting Station
Overcast Overcast  
Wind Chill: 34°   Ceiling: 4700
Heat Index: 34°   Visibility: 8mi
Dew Point: 28°   Wind: 3mph
Humidity: 79%   Direction: 20°NNE
Pressure: 30.15"   Gusts: NA
Location:  35.7648°N, 84.863°W
Report Text: KCSV 201053Z AUTO 02003KT 8SM OVC047 01/M02 A3015 RMK AO2 SLP220 T00111022
Loading
Personal Weather Stations






























Interactive Weather Map New forecast layout! Learn more

10-Day Weather Forecast

Advertisements
Track Severe Weather on mobile